Time;durP1;ratioP1;P1;durP2;ratioP2;P2;SDS_P1;SDS_P2;PMS_P1;PMS_P2;Temp;Humidity;BMP_temperature;BMP_pressure;BME280_temperature;BME280_humidity;BME280_pressure;Samples;Min_cycle;Max_cycle;Signal;HPM_P1;HPM_P2
2021/08/12 00:03:13;;;;;;;7.27;6.57;;;18.70;99.90;;;;;;6218725;22;20490;-82
2021/08/12 00:05:40;;;;;;;9.80;7.33;;;18.70;99.90;;;;;;6230194;23;20404;-82
2021/08/12 00:08:08;;;;;;;7.30;6.60;;;18.60;99.90;;;;;;6228477;23;20448;-83
2021/08/12 00:10:36;;;;;;;7.03;6.33;;;18.60;99.90;;;;;;6228511;23;20432;-85
2021/08/12 00:13:03;;;;;;;8.27;6.27;;;18.60;99.90;;;;;;6206353;23;20441;-82
2021/08/12 00:15:30;;;;;;;7.17;5.90;;;18.60;99.90;;;;;;6202921;23;20472;-85
2021/08/12 00:17:57;;;;;;;8.13;7.37;;;18.60;99.90;;;;;;6199116;23;20409;-86
2021/08/12 00:20:25;;;;;;;7.07;6.37;;;18.60;99.90;;;;;;6199420;23;20424;-85
2021/08/12 00:22:54;;;;;;;8.40;6.60;;;18.50;99.90;;;;;;6198437;23;20782;-86
2021/08/12 00:25:21;;;;;;;7.90;6.60;;;18.50;99.90;;;;;;6198524;23;20416;-85
2021/08/12 00:27:49;;;;;;;6.33;5.73;;;18.50;99.90;;;;;;6197870;23;20756;-86
2021/08/12 00:30:15;;;;;;;8.13;7.40;;;18.40;99.90;;;;;;6198446;23;20409;-86
2021/08/12 00:32:42;;;;;;;7.83;7.20;;;18.40;99.90;;;;;;6199109;23;20431;-85
2021/08/12 00:35:10;;;;;;;7.37;6.67;;;18.40;99.90;;;;;;6198625;23;20408;-86
2021/08/12 00:37:39;;;;;;;7.60;6.80;;;18.40;99.90;;;;;;6199291;23;20412;-86
2021/08/12 00:40:06;;;;;;;7.80;7.07;;;18.20;99.90;;;;;;6198012;23;20932;-86
2021/08/12 00:42:33;;;;;;;8.50;7.80;;;18.20;99.90;;;;;;6198008;23;20429;-86
2021/08/12 00:45:01;;;;;;;7.80;7.20;;;18.20;99.90;;;;;;6198444;23;20832;-86
2021/08/12 00:47:29;;;;;;;8.43;7.73;;;18.20;99.90;;;;;;6199656;23;20453;-85
2021/08/12 00:49:56;;;;;;;12.93;7.63;;;18.20;99.90;;;;;;6198555;23;20416;-85
2021/08/12 00:52:24;;;;;;;7.07;6.47;;;18.10;99.90;;;;;;6198861;23;20495;-83
2021/08/12 00:54:54;;;;;;;9.30;8.40;;;18.10;99.90;;;;;;6199563;23;20413;-84
2021/08/12 00:57:21;;;;;;;8.60;7.83;;;18.10;99.90;;;;;;6199373;23;20413;-85
2021/08/12 00:59:48;;;;;;;7.50;6.80;;;18.00;99.90;;;;;;6199550;23;20445;-85
2021/08/12 01:02:15;;;;;;;8.50;7.70;;;18.00;99.90;;;;;;6210809;23;20440;-84
2021/08/12 01:04:43;;;;;;;7.20;6.60;;;18.00;99.90;;;;;;6228633;23;20406;-85
2021/08/12 01:07:16;;;;;;;7.60;6.97;;;18.00;99.90;;;;;;6229720;23;20465;-84
2021/08/12 01:09:50;;;;;;;7.53;6.83;;;17.90;99.90;;;;;;6227400;23;20483;-85
2021/08/12 01:12:24;;;;;;;8.03;7.07;;;17.90;99.90;;;;;;6222667;23;20436;-84
2021/08/12 01:14:58;;;;;;;10.83;7.77;;;18.00;99.90;;;;;;6224550;23;20390;-84
2021/08/12 01:17:35;;;;;;;6.83;6.33;;;17.90;99.90;;;;;;6223602;23;20472;-84
2021/08/12 01:20:18;;;;;;;8.30;7.37;;;17.90;99.90;;;;;;6223965;23;20467;-84
2021/08/12 01:22:49;;;;;;;8.40;7.80;;;17.90;99.90;;;;;;6222808;23;20934;-84
2021/08/12 01:25:22;;;;;;;7.30;6.70;;;17.90;99.90;;;;;;6223526;23;20416;-84
2021/08/12 01:27:53;;;;;;;7.33;6.63;;;17.80;99.90;;;;;;6223700;23;20463;-84
2021/08/12 01:30:24;;;;;;;8.23;6.77;;;17.80;99.90;;;;;;6223906;23;20404;-84
2021/08/12 01:33:00;;;;;;;9.00;8.20;;;17.80;99.90;;;;;;6223134;23;20445;-84
2021/08/12 01:35:30;;;;;;;8.60;7.90;;;17.80;99.90;;;;;;6223506;23;20395;-84
2021/08/12 01:38:01;;;;;;;8.67;7.97;;;17.70;99.90;;;;;;6223171;23;20409;-84
2021/08/12 01:40:31;;;;;;;7.87;6.93;;;17.80;99.90;;;;;;6222859;23;20398;-84
2021/08/12 01:43:01;;;;;;;6.63;6.03;;;17.70;99.90;;;;;;6223932;23;20957;-84
2021/08/12 01:45:29;;;;;;;7.60;7.00;;;17.70;99.90;;;;;;6222892;23;20917;-84
2021/08/12 01:47:58;;;;;;;8.57;7.63;;;17.70;99.90;;;;;;6222464;23;20848;-83
2021/08/12 01:50:26;;;;;;;8.53;7.77;;;17.70;99.90;;;;;;6223333;23;20422;-84
2021/08/12 01:52:55;;;;;;;8.47;7.73;;;17.70;99.90;;;;;;6222735;23;20440;-84
2021/08/12 01:55:27;;;;;;;8.70;7.63;;;17.60;99.90;;;;;;6222791;23;20419;-84
2021/08/12 01:57:56;;;;;;;7.20;6.50;;;17.60;99.90;;;;;;6222903;23;20486;-84
2021/08/12 02:00:23;;;;;;;9.00;8.20;;;17.60;99.90;;;;;;6222841;23;20418;-84
2021/08/12 02:02:51;;;;;;;9.87;7.27;;;17.60;99.90;;;;;;6222492;23;20443;-84
2021/08/12 02:05:18;;;;;;;8.60;7.50;;;17.60;99.90;;;;;;6223126;23;20421;-84
2021/08/12 02:07:48;;;;;;;8.33;6.33;;;17.50;99.90;;;;;;6222640;23;20412;-84
2021/08/12 02:10:17;;;;;;;7.90;7.20;;;17.50;99.90;;;;;;6222764;23;20741;-84
2021/08/12 02:12:44;;;;;;;8.20;7.50;;;17.50;99.90;;;;;;6222521;23;20438;-84
2021/08/12 02:15:13;;;;;;;7.33;6.73;;;17.40;99.90;;;;;;6222659;23;20407;-84
2021/08/12 02:17:40;;;;;;;7.33;6.73;;;17.40;99.90;;;;;;6222498;23;20435;-84
2021/08/12 02:20:10;;;;;;;7.40;6.80;;;17.40;99.90;;;;;;6222866;23;20761;-84
2021/08/12 02:22:43;;;;;;;7.97;7.27;;;17.40;99.90;;;;;;6222812;23;20514;-84
2021/08/12 02:25:14;;;;;;;8.33;7.57;;;17.40;99.90;;;;;;6222743;23;20418;-84
2021/08/12 02:27:48;;;;;;;7.70;7.00;;;17.40;99.90;;;;;;6229355;23;20526;-83
2021/08/12 02:30:17;;;;;;;8.37;7.57;;;17.30;99.90;;;;;;6231805;23;20435;-83
2021/08/12 02:32:45;;;;;;;9.13;8.33;;;17.30;99.90;;;;;;6236665;23;20430;-82
2021/08/12 02:35:13;;;;;;;9.27;8.47;;;17.30;99.90;;;;;;6240680;23;20410;-83
2021/08/12 02:37:40;;;;;;;10.03;8.20;;;17.30;99.90;;;;;;6241074;23;20491;-83
2021/08/12 02:40:09;;;;;;;8.27;7.57;;;17.30;99.90;;;;;;6241508;23;20410;-83
2021/08/12 02:42:39;;;;;;;10.43;9.57;;;17.30;99.90;;;;;;6241421;23;20419;-82
2021/08/12 02:45:09;;;;;;;9.73;8.77;;;17.30;99.90;;;;;;6241591;23;20427;-83
2021/08/12 02:47:36;;;;;;;8.67;7.90;;;17.30;99.90;;;;;;6241894;23;20408;-83
2021/08/12 02:50:05;;;;;;;9.97;9.07;;;17.30;99.90;;;;;;6241804;23;20487;-83
2021/08/12 02:52:34;;;;;;;8.87;7.93;;;17.20;99.90;;;;;;6241041;23;20510;-82
2021/08/12 02:55:03;;;;;;;9.67;8.77;;;17.20;99.90;;;;;;6241179;23;20403;-83
2021/08/12 02:57:31;;;;;;;8.53;7.73;;;17.20;99.90;;;;;;6240218;23;20514;-82
2021/08/12 02:59:58;;;;;;;7.07;6.37;;;17.20;99.90;;;;;;6240268;23;20831;-83
2021/08/12 03:02:27;;;;;;;9.23;7.60;;;17.20;99.90;;;;;;6240578;23;20513;-83
2021/08/12 03:04:54;;;;;;;6.83;6.23;;;17.10;99.90;;;;;;6242164;23;20395;-82
2021/08/12 03:07:23;;;;;;;8.10;7.40;;;17.10;99.90;;;;;;6241079;23;20437;-83
2021/08/12 03:09:52;;;;;;;8.50;7.60;;;17.10;99.90;;;;;;6241575;23;20447;-83
2021/08/12 03:12:19;;;;;;;8.37;7.60;;;17.10;99.90;;;;;;6240867;23;20499;-83
2021/08/12 03:14:48;;;;;;;7.90;7.20;;;17.10;99.90;;;;;;6241120;23;20418;-83
2021/08/12 03:17:15;;;;;;;10.10;8.40;;;17.10;99.90;;;;;;6240936;23;20402;-83
2021/08/12 03:19:46;;;;;;;9.27;8.40;;;17.10;99.90;;;;;;6241320;23;20481;-83
2021/08/12 03:22:16;;;;;;;8.63;8.03;;;17.00;99.90;;;;;;6240768;23;20435;-83
2021/08/12 03:24:46;;;;;;;8.40;7.60;;;17.00;99.90;;;;;;6240970;23;20401;-83
2021/08/12 03:27:16;;;;;;;8.47;7.33;;;17.00;99.90;;;;;;6240961;23;20415;-83
2021/08/12 03:29:45;;;;;;;8.93;8.13;;;17.00;99.90;;;;;;6243284;23;20491;-82
2021/08/12 03:32:12;;;;;;;7.63;6.77;;;17.00;99.90;;;;;;6242978;23;20475;-83
2021/08/12 03:34:39;;;;;;;10.77;9.30;;;17.00;99.90;;;;;;6243553;23;20466;-83
2021/08/12 03:37:08;;;;;;;9.90;9.07;;;16.90;99.90;;;;;;6242756;23;20409;-83
2021/08/12 03:39:34;;;;;;;9.27;8.37;;;16.90;99.90;;;;;;6242892;23;20453;-82
2021/08/12 03:42:01;;;;;;;11.57;7.83;;;16.90;99.90;;;;;;6243112;23;20425;-83
2021/08/12 03:44:28;;;;;;;9.50;8.17;;;16.90;99.90;;;;;;6243156;23;20445;-83
2021/08/12 03:46:55;;;;;;;8.67;7.97;;;16.90;99.90;;;;;;6243417;23;20489;-82
2021/08/12 03:49:22;;;;;;;8.20;7.50;;;16.90;99.90;;;;;;6243065;23;20410;-83
2021/08/12 03:51:49;;;;;;;8.83;8.07;;;16.80;99.90;;;;;;6242593;23;20514;-82
2021/08/12 03:54:17;;;;;;;8.53;7.73;;;16.80;99.90;;;;;;6242684;23;20390;-82
2021/08/12 03:56:44;;;;;;;8.97;8.17;;;16.80;99.90;;;;;;6242170;23;20407;-83
2021/08/12 03:59:11;;;;;;;8.87;7.70;;;16.80;99.90;;;;;;6240138;23;20504;-83
2021/08/12 04:01:38;;;;;;;11.37;10.17;;;16.80;99.90;;;;;;6237408;23;20429;-83
2021/08/12 04:04:05;;;;;;;11.20;9.60;;;16.80;99.90;;;;;;6239311;23;20391;-83
2021/08/12 04:06:32;;;;;;;10.40;9.40;;;16.80;99.90;;;;;;6238118;23;20520;-83
2021/08/12 04:08:59;;;;;;;9.50;8.60;;;16.80;99.90;;;;;;6226522;23;20419;-83
2021/08/12 04:11:27;;;;;;;10.33;9.40;;;16.80;99.90;;;;;;6224254;23;20417;-83
2021/08/12 04:13:54;;;;;;;9.97;8.30;;;16.80;99.90;;;;;;6224334;23;20421;-83
2021/08/12 04:16:21;;;;;;;9.77;8.13;;;16.80;99.90;;;;;;6223915;23;20414;-84
2021/08/12 04:18:48;;;;;;;9.90;9.10;;;16.80;99.90;;;;;;6224288;23;20456;-84
2021/08/12 04:21:15;;;;;;;10.10;9.10;;;16.80;99.90;;;;;;6223844;23;20421;-84
2021/08/12 04:23:41;;;;;;;10.20;8.97;;;16.80;99.90;;;;;;6224072;23;20401;-84
2021/08/12 04:26:08;;;;;;;10.03;9.13;;;16.80;99.90;;;;;;6224395;23;20406;-83
2021/08/12 04:28:36;;;;;;;11.60;10.17;;;16.80;99.90;;;;;;6223904;23;20412;-83
2021/08/12 04:31:04;;;;;;;10.17;9.27;;;16.80;99.90;;;;;;6224061;23;20902;-83
2021/08/12 04:33:31;;;;;;;12.13;10.73;;;16.80;99.90;;;;;;6223826;23;20791;-83
2021/08/12 04:35:59;;;;;;;12.67;9.63;;;16.80;99.90;;;;;;6224198;23;20409;-84
2021/08/12 04:38:26;;;;;;;9.77;8.57;;;16.80;99.90;;;;;;6223529;23;20443;-83
2021/08/12 04:40:53;;;;;;;9.90;9.03;;;16.80;99.90;;;;;;6223251;23;20450;-84
2021/08/12 04:43:20;;;;;;;8.73;7.90;;;16.90;99.90;;;;;;6224186;23;20438;-83
2021/08/12 04:45:49;;;;;;;10.97;9.60;;;16.90;99.90;;;;;;6227773;23;20423;-83
2021/08/12 04:48:16;;;;;;;10.13;9.17;;;16.90;99.90;;;;;;6224842;23;20462;-84
2021/08/12 04:50:43;;;;;;;9.53;8.53;;;16.90;99.90;;;;;;6224462;23;20430;-84
2021/08/12 04:53:09;;;;;;;8.50;7.80;;;17.00;99.90;;;;;;6223617;23;20434;-83
2021/08/12 04:55:36;;;;;;;9.67;8.30;;;17.00;99.90;;;;;;6224328;23;20411;-84
2021/08/12 04:58:04;;;;;;;10.00;9.10;;;17.10;99.90;;;;;;6224056;23;20452;-84
2021/08/12 05:00:31;;;;;;;9.63;8.73;;;17.10;99.90;;;;;;6224008;23;20416;-84
2021/08/12 05:02:59;;;;;;;9.03;8.13;;;17.20;99.90;;;;;;6223544;23;20559;-84
2021/08/12 05:05:26;;;;;;;13.03;8.53;;;17.30;99.90;;;;;;6224317;23;20407;-83
2021/08/12 05:07:53;;;;;;;10.00;9.10;;;17.30;99.90;;;;;;6224417;23;20422;-84
2021/08/12 05:10:20;;;;;;;8.50;7.70;;;17.50;99.90;;;;;;6223967;23;20471;-84
2021/08/12 05:12:46;;;;;;;8.07;7.37;;;17.60;99.90;;;;;;6224108;23;20514;-84
2021/08/12 05:15:13;;;;;;;10.10;9.17;;;17.70;99.90;;;;;;6224550;23;20408;-84
2021/08/12 05:17:40;;;;;;;10.33;9.23;;;17.80;99.90;;;;;;6223886;23;20399;-84
2021/08/12 05:20:10;;;;;;;11.23;8.60;;;17.90;99.90;;;;;;6223529;23;20447;-84
2021/08/12 05:22:37;;;;;;;9.30;8.50;;;18.00;99.90;;;;;;6223709;23;20995;-84
2021/08/12 05:25:04;;;;;;;10.57;8.57;;;18.10;99.90;;;;;;6223867;23;20412;-84
2021/08/12 05:27:31;;;;;;;10.33;9.43;;;18.10;99.90;;;;;;6223896;23;20398;-84
2021/08/12 05:29:57;;;;;;;10.47;8.80;;;18.10;99.90;;;;;;6223860;23;20409;-83
2021/08/12 05:32:24;;;;;;;9.47;8.17;;;18.10;99.90;;;;;;6223630;23;20426;-84
2021/08/12 05:34:51;;;;;;;9.60;8.60;;;18.20;99.90;;;;;;6223856;23;20410;-84
2021/08/12 05:37:19;;;;;;;9.17;8.23;;;18.20;99.90;;;;;;6224039;23;20418;-84
2021/08/12 05:39:46;;;;;;;9.97;8.57;;;18.30;99.90;;;;;;6224411;23;20456;-84
2021/08/12 05:42:12;;;;;;;9.23;7.80;;;18.30;99.90;;;;;;6224482;23;20431;-84
2021/08/12 05:44:39;;;;;;;8.80;8.10;;;18.30;99.90;;;;;;6224463;23;20415;-83
2021/08/12 05:47:06;;;;;;;9.40;8.47;;;18.40;99.90;;;;;;6224026;23;20799;-83
2021/08/12 05:49:34;;;;;;;8.60;7.80;;;18.40;99.90;;;;;;6223803;23;20416;-84
2021/08/12 05:52:02;;;;;;;11.07;8.90;;;18.50;99.90;;;;;;6223973;23;20439;-84
2021/08/12 05:54:31;;;;;;;9.47;8.50;;;18.50;99.90;;;;;;6224101;23;20423;-84
2021/08/12 05:56:58;;;;;;;10.07;9.17;;;18.60;99.90;;;;;;6223896;23;20423;-84
2021/08/12 05:59:25;;;;;;;10.50;9.13;;;18.60;99.90;;;;;;6224129;23;20450;-84
2021/08/12 10:21:30;;;;;;;5.80;5.40;;;29.70;91.90;;;;;;6211357;22;20456;-83
2021/08/12 10:24:13;;;;;;;6.40;5.90;;;29.80;91.30;;;;;;6259032;23;20415;-84
2021/08/12 10:26:41;;;;;;;8.13;7.33;;;30.00;88.70;;;;;;6256779;22;20416;-83
2021/08/12 10:29:12;;;;;;;7.13;6.50;;;29.90;88.60;;;;;;6261075;23;20411;-84
2021/08/12 10:31:40;;;;;;;6.30;5.80;;;30.00;90.10;;;;;;6235033;23;20452;-83
2021/08/12 10:34:07;;;;;;;6.37;5.87;;;30.00;87.80;;;;;;6230767;23;20421;-84
2021/08/12 10:36:35;;;;;;;6.27;5.73;;;30.00;88.50;;;;;;6230075;23;20443;-84
2021/08/12 10:39:05;;;;;;;7.10;6.57;;;30.10;88.50;;;;;;6229921;23;20535;-83
2021/08/12 10:41:43;;;;;;;7.50;6.90;;;30.30;90.40;;;;;;6231277;23;20540;-84
2021/08/12 10:44:14;;;;;;;6.90;6.30;;;30.50;90.60;;;;;;6230409;23;20387;-84
2021/08/12 10:46:42;;;;;;;6.70;6.20;;;30.70;90.00;;;;;;6232240;23;20390;-83
2021/08/12 10:49:28;;;;;;;7.10;6.47;;;31.00;89.50;;;;;;6237844;23;20410;-83
2021/08/12 10:52:05;;;;;;;7.40;6.80;;;31.30;86.90;;;;;;6237170;23;20505;-83
2021/08/12 10:54:33;;;;;;;6.83;6.23;;;31.40;84.70;;;;;;6230691;23;20377;-84
2021/08/12 10:57:25;;;;;;;8.07;7.40;;;31.60;82.30;;;;;;6229708;23;20420;-87
2021/08/12 10:59:52;;;;;;;7.97;7.33;;;31.70;83.10;;;;;;6204052;22;20448;-87
2021/08/12 11:02:43;;;;;;;8.47;7.67;;;31.80;84.10;;;;;;6226305;23;20401;-87
2021/08/12 11:05:10;;;;;;;7.37;6.60;;;32.00;81.70;;;;;;6229338;23;20417;-86
2021/08/12 11:07:53;;;;;;;7.93;6.90;;;32.10;81.00;;;;;;6229355;23;20416;-84
2021/08/12 11:10:21;;;;;;;7.63;6.83;;;32.20;82.10;;;;;;6226732;23;20436;-86
2021/08/12 11:13:02;;;;;;;7.37;6.73;;;32.40;81.40;;;;;;6227854;23;20414;-83
2021/08/12 11:16:00;;;;;;;7.07;6.47;;;32.50;82.30;;;;;;6230017;23;20410;-84
2021/08/12 11:18:47;;;;;;;7.83;7.23;;;32.70;80.80;;;;;;6227385;23;20451;-87
2021/08/12 11:21:39;;;;;;;8.43;7.67;;;32.80;78.50;;;;;;6227951;23;20439;-85
2021/08/12 11:24:10;;;;;;;8.10;7.37;;;33.00;77.10;;;;;;6228850;23;20393;-86
2021/08/12 11:27:07;;;;;;;8.87;7.57;;;33.20;75.90;;;;;;6228494;23;20397;-87
2021/08/12 11:29:38;;;;;;;7.63;6.83;;;33.40;77.20;;;;;;6226178;23;20723;-86
2021/08/12 11:32:11;;;;;;;8.30;7.60;;;33.40;75.30;;;;;;6228118;23;20710;-85
2021/08/12 11:34:55;;;;;;;7.57;6.87;;;33.40;75.50;;;;;;6227713;23;20773;-85
2021/08/12 11:37:26;;;;;;;7.97;7.30;;;33.10;74.80;;;;;;6227437;23;20498;-86
2021/08/12 11:39:59;;;;;;;6.33;5.83;;;33.30;76.10;;;;;;6227183;23;20439;-86
2021/08/12 11:42:32;;;;;;;7.23;6.70;;;33.50;74.80;;;;;;6227718;23;20427;-86
2021/08/12 11:45:00;;;;;;;8.20;7.50;;;33.60;74.20;;;;;;6228078;23;20723;-85
2021/08/12 11:47:27;;;;;;;8.23;7.63;;;33.80;72.90;;;;;;6227862;23;20408;-85
2021/08/12 11:49:56;;;;;;;8.80;8.00;;;34.20;71.00;;;;;;6227917;23;20416;-86
2021/08/12 11:52:35;;;;;;;7.43;6.73;;;34.60;68.40;;;;;;6229151;23;20437;-85
2021/08/12 11:55:09;;;;;;;9.03;8.23;;;35.20;67.10;;;;;;6228504;23;20715;-86
2021/08/12 11:57:44;;;;;;;8.23;7.30;;;35.70;65.90;;;;;;6230007;23;20395;-86
2021/08/12 12:00:13;;;;;;;6.67;6.17;;;36.20;67.40;;;;;;6228363;23;20450;-85
2021/08/12 12:02:51;;;;;;;9.33;8.53;;;36.40;64.60;;;;;;6228219;23;20413;-85
2021/08/12 12:05:19;;;;;;;8.50;7.70;;;36.30;63.80;;;;;;6228809;23;20397;-85
2021/08/12 12:07:47;;;;;;;7.33;6.80;;;36.30;63.30;;;;;;6228254;23;20423;-86
2021/08/12 12:10:28;;;;;;;7.73;7.13;;;36.20;62.50;;;;;;6229614;23;20417;-85
2021/08/12 12:13:07;;;;;;;7.67;7.10;;;36.30;62.70;;;;;;6228918;23;20461;-86
2021/08/12 12:15:35;;;;;;;7.33;6.73;;;36.40;62.20;;;;;;6229478;23;20428;-86
2021/08/12 12:18:02;;;;;;;7.83;7.23;;;36.60;60.20;;;;;;6228319;23;20415;-85
2021/08/12 12:20:29;;;;;;;7.50;6.90;;;36.70;59.70;;;;;;6228432;23;20448;-86
2021/08/12 12:22:59;;;;;;;7.57;6.97;;;36.60;58.30;;;;;;6228488;23;20476;-86
2021/08/12 12:26:06;;;;;;;;;;;;;;;;;;;;;
2021/08/12 12:29:18;;;;;;;8.77;8.17;;;36.90;59.10;;;;;;6220970;23;20439;-86
2021/08/12 12:35:48;;;;;;;;;;;;;;;;;;;;;
2021/08/12 12:38:19;;;;;;;6.83;6.33;;;39.30;57.20;;;;;;6228623;23;20432;-85
2021/08/12 12:40:49;;;;;;;8.30;7.70;;;39.80;53.10;;;;;;6228899;23;20453;-86
2021/08/12 12:43:16;;;;;;;7.77;7.17;;;40.10;50.80;;;;;;6228198;23;20433;-86
2021/08/12 12:45:51;;;;;;;7.37;6.87;;;40.10;50.50;;;;;;6229353;23;20415;-86
2021/08/12 12:48:28;;;;;;;8.60;7.93;;;40.20;51.90;;;;;;6229259;23;20410;-86
2021/08/12 12:50:58;;;;;;;9.10;8.37;;;40.10;50.60;;;;;;6230381;23;20429;-82
2021/08/12 12:53:29;;;;;;;7.90;7.30;;;40.00;50.90;;;;;;6229579;23;20412;-83
2021/08/12 12:56:01;;;;;;;7.07;6.57;;;40.00;49.40;;;;;;6230541;23;20429;-83
2021/08/12 12:58:35;;;;;;;7.80;7.23;;;39.80;48.90;;;;;;6231244;23;20477;-84
2021/08/12 13:01:06;;;;;;;7.17;6.57;;;40.30;49.70;;;;;;6230046;23;20835;-83
2021/08/12 13:07:14;;;;;;;7.57;6.77;;;40.70;45.30;;;;;;6098243;23;20412;-82
2021/08/12 13:23:06;;;;;;;;;;;;;;;;;;;;;
2021/08/12 14:21:49;;;;;;;7.90;7.20;;;41.70;38.90;;;;;;5988452;23;20437;-83
2021/08/12 14:24:33;;;;;;;7.20;6.70;;;42.30;39.10;;;;;;6197835;23;20444;-83
2021/08/12 14:43:55;;;;;;;8.00;7.40;;;43.70;35.20;;;;;;6070450;23;20427;-82
2021/08/12 14:46:21;;;;;;;7.87;7.30;;;43.50;36.00;;;;;;6178686;23;20416;-83
2021/08/12 14:48:50;;;;;;;8.20;7.40;;;43.60;36.00;;;;;;6234104;23;20413;-83
2021/08/12 14:51:20;;;;;;;7.23;6.73;;;43.70;36.10;;;;;;6236085;23;20467;-83
2021/08/12 14:53:47;;;;;;;7.20;6.80;;;43.70;35.80;;;;;;6241468;23;20521;-83
2021/08/12 14:56:35;;;;;;;6.63;6.20;;;43.80;35.40;;;;;;6242662;23;20416;-83
2021/08/12 14:59:06;;;;;;;7.83;7.13;;;44.30;35.80;;;;;;6231291;23;20393;-83
2021/08/12 15:01:35;;;;;;;7.53;6.90;;;44.60;35.10;;;;;;6229671;23;20952;-83
2021/08/12 15:04:03;;;;;;;8.57;7.93;;;44.80;34.40;;;;;;6231269;23;20441;-83
2021/08/12 15:06:32;;;;;;;8.90;8.03;;;43.70;33.30;;;;;;6233271;23;20404;-83
2021/08/12 15:08:59;;;;;;;8.13;7.30;;;42.80;34.20;;;;;;6234945;23;20467;-83
2021/08/12 15:11:27;;;;;;;8.93;8.23;;;43.00;35.40;;;;;;6233975;23;20432;-83
2021/08/12 15:13:56;;;;;;;8.43;7.53;;;43.20;35.70;;;;;;6232773;23;20452;-83
2021/08/12 15:16:24;;;;;;;8.43;7.70;;;43.60;36.00;;;;;;6234331;23;20694;-83
2021/08/12 15:18:51;;;;;;;6.93;6.53;;;43.80;35.40;;;;;;6233469;23;20413;-83
2021/08/12 15:21:18;;;;;;;8.20;7.60;;;43.90;33.90;;;;;;6232087;23;20802;-83
2021/08/12 15:23:44;;;;;;;7.97;7.20;;;43.10;34.30;;;;;;6231393;23;20410;-83
2021/08/12 15:26:11;;;;;;;7.57;6.97;;;42.50;34.90;;;;;;6231926;23;20485;-83
2021/08/12 15:28:39;;;;;;;7.93;7.33;;;42.30;36.30;;;;;;6231993;23;20407;-83
2021/08/12 15:31:06;;;;;;;8.97;8.17;;;42.70;36.00;;;;;;6232360;23;20496;-83
2021/08/12 15:33:33;;;;;;;6.80;6.30;;;42.40;35.50;;;;;;6231601;23;20509;-83
2021/08/12 15:36:00;;;;;;;8.17;7.57;;;42.50;35.50;;;;;;6232204;23;20485;-83
2021/08/12 15:38:26;;;;;;;7.87;7.27;;;42.30;36.10;;;;;;6233627;23;20405;-83
2021/08/12 15:40:53;;;;;;;7.07;6.57;;;42.00;36.30;;;;;;6234104;23;20501;-83
2021/08/12 15:43:22;;;;;;;8.53;7.83;;;41.90;36.20;;;;;;6233827;23;20405;-83
2021/08/12 15:45:50;;;;;;;8.13;7.47;;;41.40;35.70;;;;;;6236500;23;20411;-83
2021/08/12 15:48:22;;;;;;;8.60;7.90;;;40.80;36.80;;;;;;6236756;23;20421;-83
2021/08/12 15:50:49;;;;;;;7.97;7.20;;;40.60;38.40;;;;;;6236001;23;20448;-83
2021/08/12 15:53:18;;;;;;;7.30;6.80;;;40.20;37.10;;;;;;6236164;23;20409;-83
2021/08/12 15:55:47;;;;;;;8.57;7.97;;;40.10;38.20;;;;;;6234684;23;20484;-83
2021/08/12 15:58:13;;;;;;;8.80;8.00;;;40.60;37.50;;;;;;6236695;23;20409;-83
2021/08/12 16:00:40;;;;;;;7.63;7.07;;;40.20;37.90;;;;;;6235256;23;20452;-83
2021/08/12 16:03:08;;;;;;;7.93;7.43;;;40.50;37.70;;;;;;6236149;23;20746;-83
2021/08/12 16:05:35;;;;;;;7.03;6.43;;;40.60;37.70;;;;;;6234988;23;20465;-83
2021/08/12 16:08:02;;;;;;;8.33;7.63;;;39.50;37.90;;;;;;6237101;23;20409;-83
2021/08/12 16:10:29;;;;;;;9.03;8.30;;;39.30;39.10;;;;;;6236886;23;20497;-83
2021/08/12 16:12:56;;;;;;;7.50;6.80;;;38.60;39.10;;;;;;6238170;23;20461;-83
2021/08/12 16:15:23;;;;;;;8.07;7.50;;;38.10;39.60;;;;;;6237554;23;20449;-83
2021/08/12 16:17:52;;;;;;;8.20;7.50;;;37.60;40.70;;;;;;6238669;23;20410;-83
2021/08/12 16:20:21;;;;;;;8.00;7.40;;;38.20;40.90;;;;;;6238272;23;20425;-83
2021/08/12 16:22:48;;;;;;;8.10;7.50;;;38.10;40.90;;;;;;6238513;23;20440;-83
2021/08/12 16:25:15;;;;;;;8.30;7.70;;;38.20;40.30;;;;;;6238512;23;20415;-83
2021/08/12 16:27:42;;;;;;;8.57;7.87;;;38.50;40.40;;;;;;6237306;23;20492;-83
2021/08/12 16:30:10;;;;;;;7.33;6.83;;;39.00;40.00;;;;;;6235403;23;20516;-83
2021/08/12 16:32:37;;;;;;;8.20;7.70;;;39.70;39.20;;;;;;6234714;23;20428;-83
2021/08/12 16:35:06;;;;;;;8.13;7.63;;;40.50;39.00;;;;;;6232446;23;20445;-83
2021/08/12 16:37:34;;;;;;;8.70;8.10;;;41.20;38.00;;;;;;6231268;23;20408;-83
2021/08/12 16:40:01;;;;;;;8.40;7.80;;;41.80;37.60;;;;;;6230594;23;20436;-83
2021/08/12 16:42:28;;;;;;;7.90;7.27;;;42.20;36.30;;;;;;6229450;23;20901;-83
2021/08/12 16:44:54;;;;;;;7.80;7.20;;;42.70;35.80;;;;;;6228889;23;20405;-83
2021/08/12 16:47:24;;;;;;;9.70;9.00;;;43.00;34.90;;;;;;6228887;23;20405;-83
2021/08/12 16:49:51;;;;;;;8.17;7.37;;;43.40;35.30;;;;;;6227936;23;20416;-83
2021/08/12 16:52:17;;;;;;;8.00;7.40;;;43.60;34.30;;;;;;6229302;23;20504;-83
2021/08/12 16:54:45;;;;;;;7.80;7.30;;;43.60;34.50;;;;;;6229774;23;20447;-83
2021/08/12 16:57:12;;;;;;;8.67;7.97;;;43.60;34.00;;;;;;6229786;23;20919;-83
2021/08/12 16:59:39;;;;;;;8.03;7.43;;;43.50;33.60;;;;;;6228955;23;20477;-83
2021/08/12 17:02:06;;;;;;;8.23;7.63;;;43.50;34.30;;;;;;6228775;23;20420;-83
2021/08/12 17:04:33;;;;;;;8.57;7.90;;;43.60;34.00;;;;;;6229386;23;20405;-83
2021/08/12 17:06:59;;;;;;;8.30;7.70;;;43.60;34.00;;;;;;6227549;23;20423;-83
2021/08/12 17:09:26;;;;;;;7.73;7.20;;;43.80;33.80;;;;;;6227190;23;20411;-83
2021/08/12 17:11:54;;;;;;;8.83;8.03;;;43.80;33.60;;;;;;6228546;23;20435;-83
2021/08/12 17:14:21;;;;;;;9.43;8.83;;;42.90;33.90;;;;;;6230064;23;20436;-83
2021/08/12 17:16:48;;;;;;;8.20;7.50;;;42.40;34.60;;;;;;6231922;23;20413;-83
2021/08/12 17:19:15;;;;;;;8.20;7.40;;;41.70;35.00;;;;;;6232527;23;20984;-83
2021/08/12 17:21:42;;;;;;;8.77;8.10;;;41.20;36.00;;;;;;6234466;23;20440;-83
2021/08/12 17:24:08;;;;;;;7.73;7.17;;;41.00;36.60;;;;;;6235479;23;20440;-83
2021/08/12 17:26:37;;;;;;;8.40;7.80;;;40.80;36.60;;;;;;6234705;23;20412;-83
2021/08/12 17:29:05;;;;;;;8.30;7.50;;;40.70;37.10;;;;;;6234856;23;20409;-83
2021/08/12 17:31:36;;;;;;;8.00;7.50;;;40.90;37.40;;;;;;6234456;23;20429;-83
2021/08/12 17:34:03;;;;;;;7.70;7.10;;;41.00;37.20;;;;;;6235887;23;20397;-83
2021/08/12 17:36:30;;;;;;;8.43;7.73;;;40.90;36.80;;;;;;6236460;23;20401;-83
2021/08/12 17:39:14;;;;;;;7.70;7.10;;;40.90;37.20;;;;;;6237917;23;20401;-83
2021/08/12 17:42:12;;;;;;;7.90;7.30;;;40.30;37.80;;;;;;6237912;23;20417;-83
2021/08/12 17:44:49;;;;;;;8.43;7.83;;;40.00;38.30;;;;;;6227024;23;20415;-86
2021/08/12 17:47:51;;;;;;;8.77;8.03;;;39.20;38.60;;;;;;6238056;23;20416;-84
2021/08/12 17:50:25;;;;;;;9.30;7.03;;;38.60;39.50;;;;;;6236761;23;20531;-84
2021/08/12 17:53:20;;;;;;;7.87;7.20;;;38.00;40.00;;;;;;6234751;23;20381;-84
2021/08/12 17:56:13;;;;;;;8.30;7.10;;;37.30;41.00;;;;;;6054317;23;20462;-84
2021/08/12 17:58:47;;;;;;;6.63;6.13;;;36.40;41.50;;;;;;6232195;23;20405;-84
2021/08/12 18:01:25;;;;;;;8.30;7.50;;;35.80;42.70;;;;;;6230959;23;20433;-83
2021/08/12 18:03:53;;;;;;;7.90;7.23;;;35.30;43.90;;;;;;6230048;23;20411;-83
2021/08/12 18:06:20;;;;;;;7.83;7.20;;;34.70;44.80;;;;;;6229786;23;20408;-83
2021/08/12 18:08:47;;;;;;;8.10;7.30;;;34.20;45.90;;;;;;6229763;23;20425;-83
2021/08/12 18:11:16;;;;;;;9.30;8.40;;;33.90;46.60;;;;;;6229672;23;20437;-83
2021/08/12 18:13:45;;;;;;;7.97;7.27;;;33.40;47.20;;;;;;6228842;23;20424;-83
2021/08/12 18:16:16;;;;;;;7.57;6.97;;;33.10;48.00;;;;;;6227606;23;20446;-83
2021/08/12 18:18:44;;;;;;;8.07;7.27;;;32.70;48.30;;;;;;6227276;23;20740;-83
2021/08/12 18:21:11;;;;;;;7.50;6.83;;;32.20;49.30;;;;;;6226564;23;20444;-83
2021/08/12 18:23:37;;;;;;;10.83;7.20;;;31.70;49.50;;;;;;6227167;23;20418;-83
2021/08/12 18:26:04;;;;;;;7.33;6.60;;;31.40;50.00;;;;;;6227732;23;20413;-83
2021/08/12 18:28:31;;;;;;;9.17;6.97;;;31.00;50.40;;;;;;6237430;23;20469;-83
2021/08/12 18:30:58;;;;;;;7.73;6.97;;;30.60;51.50;;;;;;6237748;23;20430;-83
2021/08/12 18:33:27;;;;;;;8.07;6.93;;;30.30;51.70;;;;;;6226116;23;20415;-83
2021/08/12 18:35:54;;;;;;;7.67;7.00;;;30.00;52.80;;;;;;6225702;23;20441;-83
2021/08/12 18:38:20;;;;;;;8.37;7.30;;;29.70;53.00;;;;;;6226369;23;20414;-83
2021/08/12 18:40:47;;;;;;;8.03;7.33;;;29.40;53.40;;;;;;6225511;23;20436;-83
2021/08/12 18:43:14;;;;;;;8.40;7.10;;;29.10;54.20;;;;;;6225179;23;20735;-83
2021/08/12 18:45:41;;;;;;;8.03;7.30;;;28.80;55.30;;;;;;6224834;23;20408;-83
2021/08/12 18:48:07;;;;;;;8.50;7.70;;;28.50;55.90;;;;;;6225264;23;20433;-83
2021/08/12 18:50:35;;;;;;;8.30;7.50;;;28.30;56.30;;;;;;6224725;23;20445;-83
2021/08/12 18:53:02;;;;;;;8.33;7.60;;;28.10;56.60;;;;;;6224661;23;20421;-83
2021/08/12 18:55:29;;;;;;;6.90;6.30;;;28.00;57.20;;;;;;6225090;23;20447;-83
2021/08/12 18:57:56;;;;;;;8.37;7.60;;;27.90;57.70;;;;;;6225225;23;20421;-83